sensor_id;sensor_type;location;lat;lon;timestamp;P1;durP1;ratioP1;P2;durP2;ratioP2
60896;SDS011;46749;32.932;-117.130;2023-06-10T00:01:52;0.10;;;0.10;;
60896;SDS011;46749;32.932;-117.130;2023-06-10T00:04:23;0.38;;;0.20;;
60896;SDS011;46749;32.932;-117.130;2023-06-10T00:06:49;0.35;;;0.20;;
60896;SDS011;46749;32.932;-117.130;2023-06-10T00:09:15;0.28;;;0.20;;
60896;SDS011;46749;32.932;-117.130;2023-06-10T00:11:43;0.20;;;0.20;;
60896;SDS011;46749;32.932;-117.130;2023-06-10T00:14:10;0.20;;;0.15;;
60896;SDS011;46749;32.932;-117.130;2023-06-10T00:16:36;0.13;;;0.13;;
60896;SDS011;46749;32.932;-117.130;2023-06-10T00:19:04;0.13;;;0.10;;
60896;SDS011;46749;32.932;-117.130;2023-06-10T00:21:31;0.10;;;0.10;;
60896;SDS011;46749;32.932;-117.130;2023-06-10T00:24:05;0.22;;;0.17;;
60896;SDS011;46749;32.932;-117.130;2023-06-10T00:26:39;0.10;;;0.10;;
60896;SDS011;46749;32.932;-117.130;2023-06-10T00:29:06;0.10;;;0.10;;
60896;SDS011;46749;32.932;-117.130;2023-06-10T00:31:37;0.38;;;0.10;;
60896;SDS011;46749;32.932;-117.130;2023-06-10T00:34:03;0.15;;;0.10;;
60896;SDS011;46749;32.932;-117.130;2023-06-10T00:36:29;0.10;;;0.10;;
60896;SDS011;46749;32.932;-117.130;2023-06-10T00:38:56;0.17;;;0.17;;
60896;SDS011;46749;32.932;-117.130;2023-06-10T00:41:23;0.10;;;0.10;;
60896;SDS011;46749;32.932;-117.130;2023-06-10T00:43:51;0.10;;;0.10;;
60896;SDS011;46749;32.932;-117.130;2023-06-10T00:46:18;0.10;;;0.10;;
60896;SDS011;46749;32.932;-117.130;2023-06-10T00:48:45;0.10;;;0.10;;
60896;SDS011;46749;32.932;-117.130;2023-06-10T00:51:12;0.10;;;0.10;;
60896;SDS011;46749;32.932;-117.130;2023-06-10T00:53:41;0.10;;;0.10;;
60896;SDS011;46749;32.932;-117.130;2023-06-10T00:56:08;0.30;;;0.10;;
60896;SDS011;46749;32.932;-117.130;2023-06-10T00:58:35;0.70;;;0.10;;
60896;SDS011;46749;32.932;-117.130;2023-06-10T01:01:02;0.10;;;0.10;;
60896;SDS011;46749;32.932;-117.130;2023-06-10T01:03:29;0.00;;;0.00;;
60896;SDS011;46749;32.932;-117.130;2023-06-10T01:08:57;0.10;;;0.10;;
60896;SDS011;46749;32.932;-117.130;2023-06-10T01:11:40;0.28;;;0.20;;
60896;SDS011;46749;32.932;-117.130;2023-06-10T01:14:18;0.00;;;0.00;;
60896;SDS011;46749;32.932;-117.130;2023-06-10T01:16:46;0.10;;;0.10;;
60896;SDS011;46749;32.932;-117.130;2023-06-10T01:19:13;0.22;;;0.10;;
60896;SDS011;46749;32.932;-117.130;2023-06-10T01:21:42;0.10;;;0.10;;
60896;SDS011;46749;32.932;-117.130;2023-06-10T01:24:14;0.10;;;0.10;;
60896;SDS011;46749;32.932;-117.130;2023-06-10T01:26:43;0.10;;;0.10;;
60896;SDS011;46749;32.932;-117.130;2023-06-10T01:29:20;0.10;;;0.10;;
60896;SDS011;46749;32.932;-117.130;2023-06-10T01:34:28;0.10;;;0.10;;
60896;SDS011;46749;32.932;-117.130;2023-06-10T01:36:57;0.10;;;0.10;;
60896;SDS011;46749;32.932;-117.130;2023-06-10T01:39:24;0.10;;;0.10;;
60896;SDS011;46749;32.932;-117.130;2023-06-10T01:41:52;0.15;;;0.15;;
60896;SDS011;46749;32.932;-117.130;2023-06-10T01:44:20;0.10;;;0.10;;
60896;SDS011;46749;32.932;-117.130;2023-06-10T01:46:47;0.10;;;0.10;;
60896;SDS011;46749;32.932;-117.130;2023-06-10T01:49:14;0.10;;;0.10;;
60896;SDS011;46749;32.932;-117.130;2023-06-10T01:51:40;0.52;;;0.10;;
60896;SDS011;46749;32.932;-117.130;2023-06-10T01:54:07;0.17;;;0.17;;
60896;SDS011;46749;32.932;-117.130;2023-06-10T01:56:33;0.20;;;0.10;;
60896;SDS011;46749;32.932;-117.130;2023-06-10T01:58:59;0.10;;;0.08;;
60896;SDS011;46749;32.932;-117.130;2023-06-10T02:01:25;0.15;;;0.10;;
60896;SDS011;46749;32.932;-117.130;2023-06-10T02:03:52;0.10;;;0.10;;
60896;SDS011;46749;32.932;-117.130;2023-06-10T02:06:18;0.10;;;0.10;;
60896;SDS011;46749;32.932;-117.130;2023-06-10T02:08:44;0.00;;;0.00;;
60896;SDS011;46749;32.932;-117.130;2023-06-10T02:11:11;0.10;;;0.10;;
60896;SDS011;46749;32.932;-117.130;2023-06-10T02:13:39;0.10;;;0.10;;
60896;SDS011;46749;32.932;-117.130;2023-06-10T02:16:06;0.13;;;0.13;;
60896;SDS011;46749;32.932;-117.130;2023-06-10T02:18:32;0.10;;;0.10;;
60896;SDS011;46749;32.932;-117.130;2023-06-10T02:20:59;0.10;;;0.10;;
60896;SDS011;46749;32.932;-117.130;2023-06-10T02:23:25;0.30;;;0.30;;
60896;SDS011;46749;32.932;-117.130;2023-06-10T02:25:51;0.10;;;0.10;;
60896;SDS011;46749;32.932;-117.130;2023-06-10T02:28:17;1.20;;;0.10;;
60896;SDS011;46749;32.932;-117.130;2023-06-10T02:30:44;0.10;;;0.10;;
60896;SDS011;46749;32.932;-117.130;2023-06-10T02:33:12;0.10;;;0.10;;
60896;SDS011;46749;32.932;-117.130;2023-06-10T02:35:38;0.10;;;0.10;;
60896;SDS011;46749;32.932;-117.130;2023-06-10T02:38:04;0.20;;;0.10;;
60896;SDS011;46749;32.932;-117.130;2023-06-10T02:40:31;0.20;;;0.10;;
60896;SDS011;46749;32.932;-117.130;2023-06-10T02:42:57;0.10;;;0.10;;
60896;SDS011;46749;32.932;-117.130;2023-06-10T02:45:24;0.20;;;0.20;;
60896;SDS011;46749;32.932;-117.130;2023-06-10T02:47:50;0.10;;;0.10;;
60896;SDS011;46749;32.932;-117.130;2023-06-10T02:50:16;0.25;;;0.10;;
60896;SDS011;46749;32.932;-117.130;2023-06-10T02:52:43;0.20;;;0.10;;
60896;SDS011;46749;32.932;-117.130;2023-06-10T02:55:09;0.10;;;0.10;;
60896;SDS011;46749;32.932;-117.130;2023-06-10T02:57:35;0.50;;;0.10;;
60896;SDS011;46749;32.932;-117.130;2023-06-10T03:00:02;0.17;;;0.17;;
60896;SDS011;46749;32.932;-117.130;2023-06-10T03:02:34;0.10;;;0.10;;
60896;SDS011;46749;32.932;-117.130;2023-06-10T03:05:02;0.05;;;0.00;;
60896;SDS011;46749;32.932;-117.130;2023-06-10T03:07:29;0.15;;;0.10;;
60896;SDS011;46749;32.932;-117.130;2023-06-10T03:09:55;0.30;;;0.20;;
60896;SDS011;46749;32.932;-117.130;2023-06-10T03:12:21;0.20;;;0.20;;
60896;SDS011;46749;32.932;-117.130;2023-06-10T03:14:47;0.10;;;0.03;;
60896;SDS011;46749;32.932;-117.130;2023-06-10T03:17:14;0.73;;;0.20;;
60896;SDS011;46749;32.932;-117.130;2023-06-10T03:19:40;0.20;;;0.17;;
60896;SDS011;46749;32.932;-117.130;2023-06-10T03:22:10;0.10;;;0.10;;
60896;SDS011;46749;32.932;-117.130;2023-06-10T03:24:38;0.10;;;0.10;;
60896;SDS011;46749;32.932;-117.130;2023-06-10T03:27:08;0.10;;;0.10;;
60896;SDS011;46749;32.932;-117.130;2023-06-10T03:29:38;0.10;;;0.10;;
60896;SDS011;46749;32.932;-117.130;2023-06-10T03:32:05;0.10;;;0.10;;
60896;SDS011;46749;32.932;-117.130;2023-06-10T03:34:32;0.10;;;0.10;;
60896;SDS011;46749;32.932;-117.130;2023-06-10T03:36:59;0.40;;;0.10;;
60896;SDS011;46749;32.932;-117.130;2023-06-10T03:39:25;0.15;;;0.10;;
60896;SDS011;46749;32.932;-117.130;2023-06-10T03:41:54;0.10;;;0.10;;
60896;SDS011;46749;32.932;-117.130;2023-06-10T03:44:22;0.20;;;0.17;;
60896;SDS011;46749;32.932;-117.130;2023-06-10T03:46:49;0.57;;;0.20;;
60896;SDS011;46749;32.932;-117.130;2023-06-10T03:49:16;0.30;;;0.10;;
60896;SDS011;46749;32.932;-117.130;2023-06-10T03:51:42;0.20;;;0.20;;
60896;SDS011;46749;32.932;-117.130;2023-06-10T03:54:09;0.20;;;0.20;;
60896;SDS011;46749;32.932;-117.130;2023-06-10T03:56:35;0.45;;;0.20;;
60896;SDS011;46749;32.932;-117.130;2023-06-10T03:59:01;0.13;;;0.10;;
60896;SDS011;46749;32.932;-117.130;2023-06-10T04:01:28;0.10;;;0.10;;
60896;SDS011;46749;32.932;-117.130;2023-06-10T04:03:54;0.20;;;0.20;;
60896;SDS011;46749;32.932;-117.130;2023-06-10T04:06:20;0.30;;;0.20;;
60896;SDS011;46749;32.932;-117.130;2023-06-10T04:08:50;0.10;;;0.10;;
60896;SDS011;46749;32.932;-117.130;2023-06-10T04:11:17;0.28;;;0.20;;
60896;SDS011;46749;32.932;-117.130;2023-06-10T04:13:43;1.38;;;0.10;;
60896;SDS011;46749;32.932;-117.130;2023-06-10T04:16:09;0.40;;;0.20;;
60896;SDS011;46749;32.932;-117.130;2023-06-10T04:18:35;0.20;;;0.20;;
60896;SDS011;46749;32.932;-117.130;2023-06-10T04:21:02;0.20;;;0.10;;
60896;SDS011;46749;32.932;-117.130;2023-06-10T04:23:28;0.20;;;0.20;;
60896;SDS011;46749;32.932;-117.130;2023-06-10T04:25:54;0.63;;;0.20;;
60896;SDS011;46749;32.932;-117.130;2023-06-10T04:28:24;0.30;;;0.30;;
60896;SDS011;46749;32.932;-117.130;2023-06-10T04:30:50;0.30;;;0.20;;
60896;SDS011;46749;32.932;-117.130;2023-06-10T04:33:17;0.20;;;0.20;;
60896;SDS011;46749;32.932;-117.130;2023-06-10T04:35:43;0.10;;;0.10;;
60896;SDS011;46749;32.932;-117.130;2023-06-10T04:38:09;0.13;;;0.10;;
60896;SDS011;46749;32.932;-117.130;2023-06-10T04:40:36;1.08;;;0.20;;
60896;SDS011;46749;32.932;-117.130;2023-06-10T04:43:02;0.10;;;0.10;;
60896;SDS011;46749;32.932;-117.130;2023-06-10T04:45:28;0.32;;;0.20;;
60896;SDS011;46749;32.932;-117.130;2023-06-10T04:47:55;1.10;;;0.20;;
60896;SDS011;46749;32.932;-117.130;2023-06-10T04:50:23;0.20;;;0.20;;
60896;SDS011;46749;32.932;-117.130;2023-06-10T04:52:50;0.20;;;0.20;;
60896;SDS011;46749;32.932;-117.130;2023-06-10T04:55:16;0.20;;;0.20;;
60896;SDS011;46749;32.932;-117.130;2023-06-10T04:57:42;0.40;;;0.17;;
60896;SDS011;46749;32.932;-117.130;2023-06-10T05:00:08;0.13;;;0.13;;
60896;SDS011;46749;32.932;-117.130;2023-06-10T05:02:35;0.38;;;0.20;;
60896;SDS011;46749;32.932;-117.130;2023-06-10T05:05:01;0.10;;;0.10;;
60896;SDS011;46749;32.932;-117.130;2023-06-10T05:07:27;0.20;;;0.20;;
60896;SDS011;46749;32.932;-117.130;2023-06-10T05:09:53;0.13;;;0.13;;
60896;SDS011;46749;32.932;-117.130;2023-06-10T05:12:20;0.20;;;0.20;;
60896;SDS011;46749;32.932;-117.130;2023-06-10T05:14:46;0.30;;;0.20;;
60896;SDS011;46749;32.932;-117.130;2023-06-10T05:17:12;0.15;;;0.15;;
60896;SDS011;46749;32.932;-117.130;2023-06-10T05:19:38;0.20;;;0.20;;
60896;SDS011;46749;32.932;-117.130;2023-06-10T05:22:04;0.30;;;0.20;;
60896;SDS011;46749;32.932;-117.130;2023-06-10T05:24:31;0.20;;;0.20;;
60896;SDS011;46749;32.932;-117.130;2023-06-10T05:26:57;0.20;;;0.20;;
60896;SDS011;46749;32.932;-117.130;2023-06-10T05:29:23;0.20;;;0.20;;
60896;SDS011;46749;32.932;-117.130;2023-06-10T05:31:49;0.28;;;0.10;;
60896;SDS011;46749;32.932;-117.130;2023-06-10T05:34:15;0.20;;;0.20;;
60896;SDS011;46749;32.932;-117.130;2023-06-10T05:36:42;0.77;;;0.32;;
60896;SDS011;46749;32.932;-117.130;2023-06-10T05:39:09;0.20;;;0.20;;
60896;SDS011;46749;32.932;-117.130;2023-06-10T05:41:35;0.20;;;0.20;;
60896;SDS011;46749;32.932;-117.130;2023-06-10T05:44:02;0.40;;;0.30;;
60896;SDS011;46749;32.932;-117.130;2023-06-10T05:46:28;0.30;;;0.20;;
60896;SDS011;46749;32.932;-117.130;2023-06-10T05:48:54;0.88;;;0.22;;
60896;SDS011;46749;32.932;-117.130;2023-06-10T05:51:20;0.20;;;0.20;;
60896;SDS011;46749;32.932;-117.130;2023-06-10T05:53:46;0.25;;;0.20;;
60896;SDS011;46749;32.932;-117.130;2023-06-10T05:56:13;0.22;;;0.20;;
60896;SDS011;46749;32.932;-117.130;2023-06-10T05:58:40;0.70;;;0.20;;
60896;SDS011;46749;32.932;-117.130;2023-06-10T06:01:06;0.20;;;0.15;;
60896;SDS011;46749;32.932;-117.130;2023-06-10T06:03:32;0.35;;;0.10;;
60896;SDS011;46749;32.932;-117.130;2023-06-10T06:05:58;0.45;;;0.15;;
60896;SDS011;46749;32.932;-117.130;2023-06-10T06:08:24;0.93;;;0.20;;
60896;SDS011;46749;32.932;-117.130;2023-06-10T06:10:51;0.20;;;0.20;;
60896;SDS011;46749;32.932;-117.130;2023-06-10T06:13:17;0.20;;;0.20;;
60896;SDS011;46749;32.932;-117.130;2023-06-10T06:15:43;0.22;;;0.22;;
60896;SDS011;46749;32.932;-117.130;2023-06-10T06:18:09;0.20;;;0.20;;
60896;SDS011;46749;32.932;-117.130;2023-06-10T06:20:36;0.22;;;0.22;;
60896;SDS011;46749;32.932;-117.130;2023-06-10T06:23:02;1.00;;;0.20;;
60896;SDS011;46749;32.932;-117.130;2023-06-10T06:25:28;0.20;;;0.20;;
60896;SDS011;46749;32.932;-117.130;2023-06-10T06:27:54;0.95;;;0.20;;
60896;SDS011;46749;32.932;-117.130;2023-06-10T06:30:20;0.20;;;0.20;;
60896;SDS011;46749;32.932;-117.130;2023-06-10T06:32:46;0.22;;;0.20;;
60896;SDS011;46749;32.932;-117.130;2023-06-10T06:35:13;0.20;;;0.20;;
60896;SDS011;46749;32.932;-117.130;2023-06-10T06:37:39;0.20;;;0.20;;
60896;SDS011;46749;32.932;-117.130;2023-06-10T06:40:06;0.75;;;0.30;;
60896;SDS011;46749;32.932;-117.130;2023-06-10T06:42:32;0.85;;;0.20;;
60896;SDS011;46749;32.932;-117.130;2023-06-10T06:44:58;0.30;;;0.30;;
60896;SDS011;46749;32.932;-117.130;2023-06-10T06:47:25;0.15;;;0.15;;
60896;SDS011;46749;32.932;-117.130;2023-06-10T06:49:51;0.40;;;0.30;;
60896;SDS011;46749;32.932;-117.130;2023-06-10T06:52:18;0.47;;;0.20;;
60896;SDS011;46749;32.932;-117.130;2023-06-10T06:54:44;0.20;;;0.20;;
60896;SDS011;46749;32.932;-117.130;2023-06-10T06:57:10;0.20;;;0.20;;
60896;SDS011;46749;32.932;-117.130;2023-06-10T06:59:36;0.45;;;0.30;;
60896;SDS011;46749;32.932;-117.130;2023-06-10T07:02:03;0.20;;;0.20;;
60896;SDS011;46749;32.932;-117.130;2023-06-10T07:04:29;0.40;;;0.28;;
60896;SDS011;46749;32.932;-117.130;2023-06-10T07:06:56;0.28;;;0.28;;
60896;SDS011;46749;32.932;-117.130;2023-06-10T07:09:22;0.30;;;0.22;;
60896;SDS011;46749;32.932;-117.130;2023-06-10T07:11:48;0.20;;;0.20;;
60896;SDS011;46749;32.932;-117.130;2023-06-10T07:14:14;0.20;;;0.20;;
60896;SDS011;46749;32.932;-117.130;2023-06-10T07:16:40;0.50;;;0.20;;
60896;SDS011;46749;32.932;-117.130;2023-06-10T07:19:07;0.38;;;0.20;;
60896;SDS011;46749;32.932;-117.130;2023-06-10T07:21:33;0.25;;;0.20;;
60896;SDS011;46749;32.932;-117.130;2023-06-10T07:23:59;0.30;;;0.20;;
60896;SDS011;46749;32.932;-117.130;2023-06-10T07:26:26;0.40;;;0.35;;
60896;SDS011;46749;32.932;-117.130;2023-06-10T07:29:12;0.30;;;0.20;;
60896;SDS011;46749;32.932;-117.130;2023-06-10T07:31:38;0.40;;;0.20;;
60896;SDS011;46749;32.932;-117.130;2023-06-10T07:34:06;0.35;;;0.30;;
60896;SDS011;46749;32.932;-117.130;2023-06-10T07:36:32;0.20;;;0.20;;
60896;SDS011;46749;32.932;-117.130;2023-06-10T07:38:58;0.63;;;0.30;;
60896;SDS011;46749;32.932;-117.130;2023-06-10T07:41:24;0.20;;;0.20;;
60896;SDS011;46749;32.932;-117.130;2023-06-10T07:43:54;0.95;;;0.30;;
60896;SDS011;46749;32.932;-117.130;2023-06-10T07:46:21;0.20;;;0.20;;
60896;SDS011;46749;32.932;-117.130;2023-06-10T07:48:48;0.50;;;0.30;;
60896;SDS011;46749;32.932;-117.130;2023-06-10T07:51:15;0.52;;;0.30;;
60896;SDS011;46749;32.932;-117.130;2023-06-10T07:53:42;0.47;;;0.30;;
60896;SDS011;46749;32.932;-117.130;2023-06-10T07:56:08;0.25;;;0.25;;
60896;SDS011;46749;32.932;-117.130;2023-06-10T07:58:34;0.40;;;0.30;;
60896;SDS011;46749;32.932;-117.130;2023-06-10T08:01:01;1.00;;;0.20;;
60896;SDS011;46749;32.932;-117.130;2023-06-10T08:03:27;0.35;;;0.30;;
60896;SDS011;46749;32.932;-117.130;2023-06-10T08:05:53;0.35;;;0.35;;
60896;SDS011;46749;32.932;-117.130;2023-06-10T08:08:19;0.52;;;0.40;;
60896;SDS011;46749;32.932;-117.130;2023-06-10T08:10:46;0.30;;;0.30;;
60896;SDS011;46749;32.932;-117.130;2023-06-10T08:13:12;0.57;;;0.28;;
60896;SDS011;46749;32.932;-117.130;2023-06-10T08:15:38;0.30;;;0.20;;
60896;SDS011;46749;32.932;-117.130;2023-06-10T08:18:04;0.32;;;0.32;;
60896;SDS011;46749;32.932;-117.130;2023-06-10T08:20:30;0.28;;;0.28;;
60896;SDS011;46749;32.932;-117.130;2023-06-10T08:22:57;0.20;;;0.20;;
60896;SDS011;46749;32.932;-117.130;2023-06-10T08:25:23;0.50;;;0.30;;
60896;SDS011;46749;32.932;-117.130;2023-06-10T08:27:50;0.20;;;0.20;;
60896;SDS011;46749;32.932;-117.130;2023-06-10T08:30:17;0.70;;;0.40;;
60896;SDS011;46749;32.932;-117.130;2023-06-10T08:32:43;0.30;;;0.30;;
60896;SDS011;46749;32.932;-117.130;2023-06-10T08:35:09;0.45;;;0.28;;
60896;SDS011;46749;32.932;-117.130;2023-06-10T08:37:36;0.52;;;0.20;;
60896;SDS011;46749;32.932;-117.130;2023-06-10T08:40:02;0.85;;;0.30;;
60896;SDS011;46749;32.932;-117.130;2023-06-10T08:45:29;0.43;;;0.40;;
60896;SDS011;46749;32.932;-117.130;2023-06-10T08:48:01;0.28;;;0.20;;
60896;SDS011;46749;32.932;-117.130;2023-06-10T08:50:35;0.30;;;0.30;;
60896;SDS011;46749;32.932;-117.130;2023-06-10T08:53:04;0.30;;;0.30;;
60896;SDS011;46749;32.932;-117.130;2023-06-10T08:55:32;1.10;;;0.40;;
60896;SDS011;46749;32.932;-117.130;2023-06-10T08:58:01;0.30;;;0.30;;
60896;SDS011;46749;32.932;-117.130;2023-06-10T09:00:28;0.30;;;0.30;;
60896;SDS011;46749;32.932;-117.130;2023-06-10T09:02:56;0.40;;;0.32;;
60896;SDS011;46749;32.932;-117.130;2023-06-10T09:05:23;0.22;;;0.22;;
60896;SDS011;46749;32.932;-117.130;2023-06-10T09:07:50;0.40;;;0.30;;
60896;SDS011;46749;32.932;-117.130;2023-06-10T09:10:18;0.50;;;0.30;;
60896;SDS011;46749;32.932;-117.130;2023-06-10T09:12:44;0.38;;;0.30;;
60896;SDS011;46749;32.932;-117.130;2023-06-10T09:15:10;0.40;;;0.30;;
60896;SDS011;46749;32.932;-117.130;2023-06-10T09:17:40;0.30;;;0.30;;
60896;SDS011;46749;32.932;-117.130;2023-06-10T09:20:07;0.45;;;0.35;;
60896;SDS011;46749;32.932;-117.130;2023-06-10T09:22:33;0.45;;;0.30;;
60896;SDS011;46749;32.932;-117.130;2023-06-10T09:25:09;0.43;;;0.40;;
60896;SDS011;46749;32.932;-117.130;2023-06-10T09:27:47;0.85;;;0.30;;
60896;SDS011;46749;32.932;-117.130;2023-06-10T09:30:28;0.35;;;0.30;;
60896;SDS011;46749;32.932;-117.130;2023-06-10T09:32:57;0.30;;;0.30;;
60896;SDS011;46749;32.932;-117.130;2023-06-10T09:35:25;0.40;;;0.40;;
60896;SDS011;46749;32.932;-117.130;2023-06-10T09:37:53;0.60;;;0.20;;
60896;SDS011;46749;32.932;-117.130;2023-06-10T09:40:23;0.30;;;0.30;;
60896;SDS011;46749;32.932;-117.130;2023-06-10T09:42:54;0.43;;;0.30;;
60896;SDS011;46749;32.932;-117.130;2023-06-10T09:45:22;0.30;;;0.30;;
60896;SDS011;46749;32.932;-117.130;2023-06-10T09:47:52;0.85;;;0.50;;
60896;SDS011;46749;32.932;-117.130;2023-06-10T09:50:19;0.35;;;0.30;;
60896;SDS011;46749;32.932;-117.130;2023-06-10T09:52:46;0.80;;;0.40;;
60896;SDS011;46749;32.932;-117.130;2023-06-10T09:55:13;0.30;;;0.30;;
60896;SDS011;46749;32.932;-117.130;2023-06-10T09:57:40;0.95;;;0.40;;
60896;SDS011;46749;32.932;-117.130;2023-06-10T10:00:07;0.65;;;0.40;;
60896;SDS011;46749;32.932;-117.130;2023-06-10T10:05:13;0.20;;;0.20;;
60896;SDS011;46749;32.932;-117.130;2023-06-10T10:07:41;0.57;;;0.50;;
60896;SDS011;46749;32.932;-117.130;2023-06-10T10:10:07;0.65;;;0.30;;
60896;SDS011;46749;32.932;-117.130;2023-06-10T10:12:35;0.57;;;0.20;;
60896;SDS011;46749;32.932;-117.130;2023-06-10T10:15:03;0.77;;;0.30;;
60896;SDS011;46749;32.932;-117.130;2023-06-10T10:17:33;0.30;;;0.30;;
60896;SDS011;46749;32.932;-117.130;2023-06-10T10:20:04;0.47;;;0.35;;
60896;SDS011;46749;32.932;-117.130;2023-06-10T10:22:35;0.60;;;0.50;;
60896;SDS011;46749;32.932;-117.130;2023-06-10T10:25:11;0.52;;;0.40;;
60896;SDS011;46749;32.932;-117.130;2023-06-10T10:27:48;0.40;;;0.38;;
60896;SDS011;46749;32.932;-117.130;2023-06-10T10:30:17;0.30;;;0.30;;
60896;SDS011;46749;32.932;-117.130;2023-06-10T10:35:35;0.30;;;0.30;;
60896;SDS011;46749;32.932;-117.130;2023-06-10T10:38:03;0.52;;;0.30;;
60896;SDS011;46749;32.932;-117.130;2023-06-10T10:40:30;0.20;;;0.20;;
60896;SDS011;46749;32.932;-117.130;2023-06-10T10:42:58;0.93;;;0.40;;
60896;SDS011;46749;32.932;-117.130;2023-06-10T10:45:29;1.05;;;0.40;;
60896;SDS011;46749;32.932;-117.130;2023-06-10T10:47:55;1.08;;;0.40;;
60896;SDS011;46749;32.932;-117.130;2023-06-10T10:50:22;0.32;;;0.30;;
60896;SDS011;46749;32.932;-117.130;2023-06-10T10:55:54;0.75;;;0.40;;
60896;SDS011;46749;32.932;-117.130;2023-06-10T10:58:33;0.65;;;0.50;;
60896;SDS011;46749;32.932;-117.130;2023-06-10T11:01:00;0.60;;;0.40;;
60896;SDS011;46749;32.932;-117.130;2023-06-10T11:03:43;0.50;;;0.47;;
60896;SDS011;46749;32.932;-117.130;2023-06-10T11:06:15;0.82;;;0.50;;
60896;SDS011;46749;32.932;-117.130;2023-06-10T11:16:29;0.40;;;0.28;;
60896;SDS011;46749;32.932;-117.130;2023-06-10T11:19:03;0.40;;;0.38;;
60896;SDS011;46749;32.932;-117.130;2023-06-10T11:21:29;0.90;;;0.60;;
60896;SDS011;46749;32.932;-117.130;2023-06-10T11:23:57;1.02;;;0.60;;
60896;SDS011;46749;32.932;-117.130;2023-06-10T11:34:02;0.77;;;0.50;;
60896;SDS011;46749;32.932;-117.130;2023-06-10T11:36:30;0.40;;;0.30;;
60896;SDS011;46749;32.932;-117.130;2023-06-10T11:38:57;0.63;;;0.50;;
60896;SDS011;46749;32.932;-117.130;2023-06-10T11:41:24;0.43;;;0.43;;
60896;SDS011;46749;32.932;-117.130;2023-06-10T11:43:56;0.80;;;0.40;;
60896;SDS011;46749;32.932;-117.130;2023-06-10T11:46:43;0.80;;;0.52;;
60896;SDS011;46749;32.932;-117.130;2023-06-10T11:49:11;0.85;;;0.50;;
60896;SDS011;46749;32.932;-117.130;2023-06-10T11:51:38;0.30;;;0.30;;
60896;SDS011;46749;32.932;-117.130;2023-06-10T11:54:08;1.30;;;0.40;;
60896;SDS011;46749;32.932;-117.130;2023-06-10T11:56:35;0.32;;;0.30;;
60896;SDS011;46749;32.932;-117.130;2023-06-10T11:59:02;0.52;;;0.40;;
60896;SDS011;46749;32.932;-117.130;2023-06-10T12:01:40;0.68;;;0.40;;
60896;SDS011;46749;32.932;-117.130;2023-06-10T12:04:12;0.50;;;0.45;;
60896;SDS011;46749;32.932;-117.130;2023-06-10T12:06:50;0.40;;;0.40;;
60896;SDS011;46749;32.932;-117.130;2023-06-10T12:09:18;0.95;;;0.50;;
60896;SDS011;46749;32.932;-117.130;2023-06-10T12:11:58;0.35;;;0.35;;
60896;SDS011;46749;32.932;-117.130;2023-06-10T12:17:34;0.85;;;0.40;;
60896;SDS011;46749;32.932;-117.130;2023-06-10T12:20:06;0.60;;;0.50;;
60896;SDS011;46749;32.932;-117.130;2023-06-10T12:22:40;0.90;;;0.40;;
60896;SDS011;46749;32.932;-117.130;2023-06-10T12:25:08;1.50;;;0.50;;
60896;SDS011;46749;32.932;-117.130;2023-06-10T12:27:35;0.65;;;0.50;;
60896;SDS011;46749;32.932;-117.130;2023-06-10T12:30:03;0.52;;;0.43;;
60896;SDS011;46749;32.932;-117.130;2023-06-10T12:32:41;1.10;;;0.38;;
60896;SDS011;46749;32.932;-117.130;2023-06-10T12:35:10;0.90;;;0.50;;
60896;SDS011;46749;32.932;-117.130;2023-06-10T12:37:38;1.48;;;0.50;;
60896;SDS011;46749;32.932;-117.130;2023-06-10T12:40:05;0.60;;;0.50;;
60896;SDS011;46749;32.932;-117.130;2023-06-10T12:42:35;0.57;;;0.47;;
60896;SDS011;46749;32.932;-117.130;2023-06-10T12:45:02;0.55;;;0.45;;
60896;SDS011;46749;32.932;-117.130;2023-06-10T12:47:32;0.50;;;0.43;;
60896;SDS011;46749;32.932;-117.130;2023-06-10T12:50:01;0.40;;;0.40;;
60896;SDS011;46749;32.932;-117.130;2023-06-10T12:52:28;0.45;;;0.40;;
60896;SDS011;46749;32.932;-117.130;2023-06-10T12:54:54;1.35;;;0.43;;
60896;SDS011;46749;32.932;-117.130;2023-06-10T12:57:21;1.15;;;0.73;;
60896;SDS011;46749;32.932;-117.130;2023-06-10T12:59:48;0.73;;;0.43;;
60896;SDS011;46749;32.932;-117.130;2023-06-10T13:02:18;1.40;;;0.50;;
60896;SDS011;46749;32.932;-117.130;2023-06-10T13:04:45;0.43;;;0.35;;
60896;SDS011;46749;32.932;-117.130;2023-06-10T13:07:12;1.55;;;0.40;;
60896;SDS011;46749;32.932;-117.130;2023-06-10T13:09:39;0.47;;;0.38;;
60896;SDS011;46749;32.932;-117.130;2023-06-10T13:12:05;0.45;;;0.30;;
60896;SDS011;46749;32.932;-117.130;2023-06-10T13:14:33;1.02;;;0.45;;
60896;SDS011;46749;32.932;-117.130;2023-06-10T13:17:03;0.50;;;0.40;;
60896;SDS011;46749;32.932;-117.130;2023-06-10T13:19:32;0.50;;;0.40;;
60896;SDS011;46749;32.932;-117.130;2023-06-10T13:21:59;0.40;;;0.32;;
60896;SDS011;46749;32.932;-117.130;2023-06-10T13:24:25;0.63;;;0.30;;
60896;SDS011;46749;32.932;-117.130;2023-06-10T13:26:51;0.60;;;0.45;;
60896;SDS011;46749;32.932;-117.130;2023-06-10T13:29:17;0.32;;;0.28;;
60896;SDS011;46749;32.932;-117.130;2023-06-10T13:31:45;0.43;;;0.30;;
60896;SDS011;46749;32.932;-117.130;2023-06-10T13:34:11;0.60;;;0.30;;
60896;SDS011;46749;32.932;-117.130;2023-06-10T13:36:37;0.30;;;0.30;;
60896;SDS011;46749;32.932;-117.130;2023-06-10T13:39:04;0.50;;;0.40;;
60896;SDS011;46749;32.932;-117.130;2023-06-10T13:41:30;0.88;;;0.32;;
60896;SDS011;46749;32.932;-117.130;2023-06-10T13:43:56;0.60;;;0.40;;
60896;SDS011;46749;32.932;-117.130;2023-06-10T13:46:22;0.70;;;0.40;;
60896;SDS011;46749;32.932;-117.130;2023-06-10T13:48:48;0.43;;;0.32;;
60896;SDS011;46749;32.932;-117.130;2023-06-10T13:51:15;0.40;;;0.30;;
60896;SDS011;46749;32.932;-117.130;2023-06-10T13:53:41;0.57;;;0.30;;
60896;SDS011;46749;32.932;-117.130;2023-06-10T13:56:08;0.90;;;0.40;;
60896;SDS011;46749;32.932;-117.130;2023-06-10T13:58:34;0.40;;;0.30;;
60896;SDS011;46749;32.932;-117.130;2023-06-10T14:01:04;0.60;;;0.40;;
60896;SDS011;46749;32.932;-117.130;2023-06-10T14:03:33;0.30;;;0.30;;
60896;SDS011;46749;32.932;-117.130;2023-06-10T14:05:59;0.30;;;0.30;;
60896;SDS011;46749;32.932;-117.130;2023-06-10T14:08:25;0.25;;;0.25;;
60896;SDS011;46749;32.932;-117.130;2023-06-10T14:10:51;1.08;;;0.30;;
60896;SDS011;46749;32.932;-117.130;2023-06-10T14:13:18;0.30;;;0.30;;
60896;SDS011;46749;32.932;-117.130;2023-06-10T14:15:44;0.63;;;0.35;;
60896;SDS011;46749;32.932;-117.130;2023-06-10T14:18:10;0.47;;;0.30;;
60896;SDS011;46749;32.932;-117.130;2023-06-10T14:20:37;0.55;;;0.40;;
60896;SDS011;46749;32.932;-117.130;2023-06-10T14:23:03;0.70;;;0.32;;
60896;SDS011;46749;32.932;-117.130;2023-06-10T14:25:29;0.40;;;0.40;;
60896;SDS011;46749;32.932;-117.130;2023-06-10T14:27:55;0.40;;;0.30;;
60896;SDS011;46749;32.932;-117.130;2023-06-10T14:30:22;0.43;;;0.30;;
60896;SDS011;46749;32.932;-117.130;2023-06-10T14:32:49;0.30;;;0.30;;
60896;SDS011;46749;32.932;-117.130;2023-06-10T14:35:15;0.52;;;0.40;;
60896;SDS011;46749;32.932;-117.130;2023-06-10T14:37:41;1.10;;;0.38;;
60896;SDS011;46749;32.932;-117.130;2023-06-10T14:40:08;0.30;;;0.30;;
60896;SDS011;46749;32.932;-117.130;2023-06-10T14:42:34;0.60;;;0.40;;
60896;SDS011;46749;32.932;-117.130;2023-06-10T14:45:01;0.40;;;0.30;;
60896;SDS011;46749;32.932;-117.130;2023-06-10T14:47:27;1.13;;;0.85;;